Aérodrome :
LOGIN :

S'inscrire | Disclaimer

   EN    FR    IT 

 










Légende :    VFR   VFR Marginal   IFR   IFR Intensif   IFR Très Intensif
Visi : 
Plafond : 
>= 8 km
>= 3000ft
5 à 8 km
1000 à 3000 ft
1500m à 5 km
500 à 1000 ft
800 à 1500m
200 à 500 ft
< 800m
< 200 ft
Symboles :   Orages  Brouillard  Fortes neiges  Fortes précipitations  Vent > 20 kt
SIGMETs :   Divers  Orages  Givrage  Turbulence  Onde Orograph.  Cendres Volcan.







- Altitude de l'aérodrome : 505 ft
- Code IATA : SXB
- Voir les cartes d'approche


LFST - Strasbourg

DERNIER METAR :
  • 140800Z AUTO 25019KT CAVOK 06/M00 Q1003 BECMG 21013G23KT SCT030TCU

METARs EXPIRÉS :
  • 140730Z AUTO 25018KT CAVOK 06/M01 Q1003 BECMG 21013G23KT SCT030TCU
  • 140700Z AUTO 25020KT CAVOK 06/M01 Q1003 BECMG 21013G23KT SCT030TCU
  • 140630Z AUTO 26020KT CAVOK 06/M01 Q1002 BECMG 21013G23KT SCT030TCU
  • 140600Z AUTO 27021KT CAVOK 06/M00 Q1002 BECMG 21013G23KT SCT030TCU
  • 140530Z AUTO 27019KT 250V310 CAVOK 06/00 Q1001 BECMG 21013G23KT SCT030TCU

TAF TAF LFST
Valide du 14 à 06h jusqu'au 15 à 06h UTC


140500Z 1406/1506 27025G40KT 9999 SCT030
BECMG 1407/1410 21013G23KT SCT030TCU
TEMPO 1410/1501 23020G33KT 2000 SHRAGS BKN025CB
PROB30
TEMPO 1418/1501 TSRAGS
PROB30
TEMPO 1501/1506 4000 SHRA FEW025CB BKN030
Pas de NOTAMs connus pour ce terrain.



MET'MAP, la Météo Aéronautique d'un coup d'oeil ! - Copyright ORBIFLY Décembre 2007 - Disclaimer

ORBIFLY MET'MAP TEAM :

Programmation & Développement : Alexandra Zaïnal
Conception & Développement : Baudouin d'Aumeries
Co-Programmation & Développement : Marc-Olivier Méhu
Soutien technique & logistique : Manuel Goepfert

Contact : metmap@orbifly.com




SOURCES & CREDITS :

   NOAA